createdAt,value
2022-12-03T00:01:37.678Z,3.40
2022-12-03T00:04:06.050Z,3.40
2022-12-03T00:06:34.805Z,3.40
2022-12-03T00:09:03.412Z,3.40
2022-12-03T00:11:31.704Z,3.40
2022-12-03T00:13:59.850Z,3.40
2022-12-03T00:16:28.015Z,3.40
2022-12-03T00:18:57.471Z,3.40
2022-12-03T00:21:25.508Z,3.40
2022-12-03T00:23:53.547Z,3.40
2022-12-03T00:26:21.674Z,3.40
2022-12-03T00:28:50.512Z,3.40
2022-12-03T00:31:18.632Z,3.40
2022-12-03T00:33:46.739Z,3.40
2022-12-03T00:36:16.104Z,3.40
2022-12-03T00:38:44.138Z,3.40
2022-12-03T00:41:12.305Z,3.40
2022-12-03T00:43:40.315Z,3.40
2022-12-03T00:46:08.376Z,3.40
2022-12-03T00:48:36.489Z,3.40
2022-12-03T00:51:04.504Z,3.40
2022-12-03T00:53:33.910Z,3.40
2022-12-03T00:56:02.270Z,3.40
2022-12-03T00:58:30.322Z,3.40
2022-12-03T01:00:59.210Z,3.40
2022-12-03T01:03:27.280Z,3.40
2022-12-03T01:05:55.355Z,3.40
2022-12-03T01:08:23.404Z,3.40
2022-12-03T01:10:52.771Z,3.40
2022-12-03T01:13:20.808Z,3.40
2022-12-03T01:15:48.930Z,3.30
2022-12-03T01:18:17.025Z,3.30
2022-12-03T01:20:45.241Z,3.30
2022-12-03T01:23:14.399Z,3.30
2022-12-03T01:25:42.534Z,3.30
2022-12-03T01:28:11.892Z,3.30
2022-12-03T01:30:53.860Z,3.30
2022-12-03T01:33:21.962Z,3.30
2022-12-03T01:35:49.990Z,3.30
2022-12-03T01:38:17.969Z,3.30
2022-12-03T01:40:46.052Z,3.20
2022-12-03T01:43:15.509Z,3.30
2022-12-03T01:45:43.510Z,3.20
2022-12-03T01:48:16.598Z,3.30
2022-12-03T01:50:45.336Z,3.30
2022-12-03T01:53:16.723Z,3.20
2022-12-03T01:55:48.629Z,3.20
2022-12-03T01:58:21.156Z,3.20
2022-12-03T02:00:49.196Z,3.20
2022-12-03T02:03:21.659Z,3.20
2022-12-03T02:05:49.864Z,3.20
2022-12-03T02:08:28.835Z,3.20
2022-12-03T02:10:57.860Z,3.20
2022-12-03T02:13:27.430Z,3.20
2022-12-03T02:15:55.653Z,3.20
2022-12-03T02:18:24.475Z,3.10
2022-12-03T02:21:01.481Z,3.10
2022-12-03T02:23:37.107Z,3.10
2022-12-03T02:26:07.253Z,3.10
2022-12-03T02:28:35.536Z,3.10
2022-12-03T02:31:05.149Z,3.10
2022-12-03T02:33:33.725Z,3.10
2022-12-03T02:36:03.739Z,3.10
2022-12-03T02:38:35.516Z,3.10
2022-12-03T02:41:08.580Z,3.00
2022-12-03T02:43:36.192Z,3.10
2022-12-03T02:46:06.659Z,3.10
2022-12-03T02:48:38.104Z,3.10
2022-12-03T02:51:09.715Z,3.00
2022-12-03T02:53:42.280Z,3.00
2022-12-03T02:56:15.004Z,3.00
2022-12-03T02:58:44.327Z,3.00
2022-12-03T03:01:12.716Z,3.00
2022-12-03T03:03:41.147Z,3.00
2022-12-03T03:06:10.448Z,3.00
2022-12-03T03:08:40.103Z,3.00
2022-12-03T03:11:08.331Z,3.00
2022-12-03T03:13:38.796Z,3.00
2022-12-03T03:16:08.311Z,3.00
2022-12-03T03:18:37.140Z,3.00
2022-12-03T03:21:06.235Z,2.90
2022-12-03T03:23:34.359Z,2.90
2022-12-03T03:26:05.874Z,2.90
2022-12-03T03:28:38.946Z,2.90
2022-12-03T03:31:09.262Z,2.80
2022-12-03T03:33:38.946Z,2.80
2022-12-03T03:36:08.117Z,2.80
2022-12-03T03:38:37.444Z,2.80
2022-12-03T03:41:08.478Z,2.80
2022-12-03T03:43:40.480Z,2.70
2022-12-03T03:46:09.154Z,2.70
2022-12-03T03:48:37.336Z,2.70
2022-12-03T03:51:09.344Z,2.70
2022-12-03T03:53:38.724Z,2.60
2022-12-03T03:56:07.585Z,2.60
2022-12-03T03:58:37.163Z,2.60
2022-12-03T04:01:05.516Z,2.60
2022-12-03T04:03:33.646Z,2.60
2022-12-03T04:06:01.740Z,2.60
2022-12-03T04:08:29.806Z,2.50
2022-12-03T04:11:15.204Z,2.50
2022-12-03T04:13:44.635Z,2.50
2022-12-03T04:16:12.659Z,2.50
2022-12-03T04:18:46.358Z,2.50
2022-12-03T04:21:34.057Z,2.50
2022-12-03T04:24:02.685Z,2.50
2022-12-03T04:26:48.129Z,2.40
2022-12-03T04:29:20.664Z,2.40
2022-12-03T04:32:06.535Z,2.40
2022-12-03T04:34:52.385Z,2.40
2022-12-03T04:37:20.980Z,2.40
2022-12-03T04:39:49.017Z,2.40
2022-12-03T04:42:17.066Z,2.30
2022-12-03T04:44:46.481Z,2.30
2022-12-03T04:47:16.463Z,2.30
2022-12-03T04:49:46.126Z,2.30
2022-12-03T04:52:15.847Z,2.30
2022-12-03T04:54:44.689Z,2.30
2022-12-03T04:57:13.618Z,2.20
2022-12-03T04:59:41.681Z,2.20
2022-12-03T05:02:11.112Z,2.20
2022-12-03T05:04:39.328Z,2.20
2022-12-03T05:07:07.359Z,2.20
2022-12-03T05:09:35.402Z,2.10
2022-12-03T05:12:03.895Z,2.10
2022-12-03T05:14:32.083Z,2.10
2022-12-03T05:17:00.137Z,2.10
2022-12-03T05:19:43.510Z,2.10
2022-12-03T05:22:11.581Z,2.10
2022-12-03T05:24:39.590Z,2.10
2022-12-03T05:27:07.589Z,2.10
2022-12-03T05:29:35.595Z,2.10
2022-12-03T05:32:03.727Z,2.10
2022-12-03T05:34:33.103Z,2.10
2022-12-03T05:37:01.105Z,2.10
2022-12-03T05:39:29.181Z,2.00
2022-12-03T05:42:14.484Z,2.00
2022-12-03T05:44:42.552Z,2.00
2022-12-03T05:47:10.560Z,2.00
2022-12-03T05:49:40.034Z,1.90
2022-12-03T05:52:08.088Z,1.90
2022-12-03T05:54:36.144Z,1.90
2022-12-03T05:57:04.282Z,1.90
2022-12-03T05:59:32.388Z,1.80
2022-12-03T06:02:00.448Z,1.80
2022-12-03T06:04:28.645Z,1.80
2022-12-03T06:06:58.057Z,1.80
2022-12-03T06:09:26.123Z,1.80
2022-12-03T06:11:54.248Z,1.70
2022-12-03T06:14:22.389Z,1.70
2022-12-03T06:16:50.589Z,1.70
2022-12-03T06:19:19.051Z,1.70
2022-12-03T06:21:47.245Z,1.70
2022-12-03T06:24:16.778Z,1.70
2022-12-03T06:26:44.958Z,1.70
2022-12-03T06:29:13.293Z,1.70
2022-12-03T06:31:41.421Z,1.70
2022-12-03T06:34:09.660Z,1.60
2022-12-03T06:36:37.845Z,1.60
2022-12-03T06:39:05.980Z,1.60
2022-12-03T06:41:35.679Z,1.60
2022-12-03T06:44:03.919Z,1.60
2022-12-03T06:46:32.100Z,1.60
2022-12-03T06:49:00.357Z,1.60
2022-12-03T06:51:28.360Z,1.60
2022-12-03T06:53:56.364Z,1.50
2022-12-03T06:56:25.149Z,1.50
2022-12-03T06:58:56.282Z,1.50
2022-12-03T07:01:24.442Z,1.50
2022-12-03T07:03:52.608Z,1.50
2022-12-03T07:06:20.734Z,1.50
2022-12-03T07:08:48.781Z,1.50
2022-12-03T07:11:40.199Z,1.50
2022-12-03T07:14:11.194Z,1.40
2022-12-03T07:16:40.499Z,1.40
2022-12-03T07:19:08.734Z,1.40
2022-12-03T07:21:36.905Z,1.40
2022-12-03T07:24:05.577Z,1.40
2022-12-03T07:26:34.034Z,1.50
2022-12-03T07:29:02.415Z,1.50
2022-12-03T07:31:32.163Z,1.40
2022-12-03T07:34:18.671Z,1.50
2022-12-03T07:36:49.282Z,1.40
2022-12-03T07:39:17.455Z,1.40
2022-12-03T07:41:45.612Z,1.40
2022-12-03T07:44:15.015Z,1.40
2022-12-03T07:46:44.673Z,1.40
2022-12-03T07:49:13.249Z,1.40
2022-12-03T07:51:41.422Z,1.40
2022-12-03T07:54:09.508Z,1.40
2022-12-03T07:56:37.573Z,1.40
2022-12-03T07:59:05.634Z,1.40
2022-12-03T08:01:33.761Z,1.40
2022-12-03T08:04:03.413Z,1.40
2022-12-03T08:06:31.589Z,1.40
2022-12-03T08:08:59.870Z,1.40
2022-12-03T08:11:30.345Z,1.40
2022-12-03T08:13:59.369Z,1.40
2022-12-03T08:16:27.755Z,1.40
2022-12-03T08:18:57.474Z,1.50
2022-12-03T08:21:38.031Z,1.50
2022-12-03T08:24:14.860Z,1.50
2022-12-03T08:26:45.078Z,1.50
2022-12-03T08:29:14.967Z,1.50
2022-12-03T08:31:47.197Z,1.50
2022-12-03T08:34:19.559Z,1.50
2022-12-03T08:36:51.730Z,1.50
2022-12-03T08:39:30.676Z,1.50
2022-12-03T08:42:26.840Z,1.50
2022-12-03T08:44:56.209Z,1.50
2022-12-03T08:47:25.427Z,1.50
2022-12-03T08:49:57.968Z,1.60
2022-12-03T08:52:35.236Z,1.60
2022-12-03T08:55:30.053Z,1.60
2022-12-03T08:57:58.586Z,1.60
2022-12-03T09:00:26.974Z,1.50
2022-12-03T09:02:59.963Z,1.60
2022-12-03T09:05:32.407Z,1.60
2022-12-03T09:08:02.294Z,1.60
2022-12-03T09:10:30.398Z,1.60
2022-12-03T09:12:58.528Z,1.60
2022-12-03T09:15:26.584Z,1.60
2022-12-03T09:17:54.812Z,1.60
2022-12-03T09:20:22.901Z,1.50
2022-12-03T09:22:50.954Z,1.60
2022-12-03T09:25:20.329Z,1.50
2022-12-03T09:27:48.408Z,1.50
2022-12-03T09:30:17.183Z,1.50
2022-12-03T09:32:45.198Z,1.50
2022-12-03T09:35:13.769Z,1.50
2022-12-03T09:37:42.045Z,1.50
2022-12-03T09:40:11.755Z,1.50
2022-12-03T09:42:41.537Z,1.40
2022-12-03T09:45:14.257Z,1.40
2022-12-03T09:47:45.175Z,1.40
2022-12-03T09:50:17.196Z,1.40
2022-12-03T09:52:46.876Z,1.40
2022-12-03T09:55:18.521Z,1.40
2022-12-03T09:57:48.088Z,1.40
2022-12-03T10:00:18.860Z,1.40
2022-12-03T10:02:47.704Z,1.40
2022-12-03T10:05:16.293Z,1.40
2022-12-03T10:07:44.454Z,1.40
2022-12-03T10:10:17.005Z,1.40
2022-12-03T10:12:47.005Z,1.40
2022-12-03T10:15:17.493Z,1.40
2022-12-03T10:17:46.982Z,1.40
2022-12-03T10:20:18.074Z,1.40
2022-12-03T10:22:48.702Z,1.40
2022-12-03T10:25:19.042Z,1.50
2022-12-03T10:27:57.596Z,1.50
2022-12-03T10:30:28.297Z,1.50
2022-12-03T10:32:58.557Z,1.50
2022-12-03T10:35:37.148Z,1.50
2022-12-03T10:38:06.658Z,1.50
2022-12-03T10:40:36.511Z,1.50
2022-12-03T10:43:17.288Z,1.60
2022-12-03T10:45:46.764Z,1.60
2022-12-03T10:48:16.925Z,1.60
2022-12-03T10:50:52.997Z,1.60
2022-12-03T10:53:22.840Z,1.60
2022-12-03T10:55:52.824Z,1.60
2022-12-03T10:58:24.840Z,1.70
2022-12-03T11:00:56.047Z,1.70
2022-12-03T11:03:25.837Z,1.70
2022-12-03T11:05:56.317Z,1.70
2022-12-03T11:08:26.160Z,1.70
2022-12-03T11:10:59.082Z,1.70
2022-12-03T11:13:54.818Z,1.70
2022-12-03T11:17:08.970Z,1.80
2022-12-03T11:19:59.176Z,1.80
2022-12-03T11:22:41.786Z,1.80
2022-12-03T11:25:37.072Z,1.80
2022-12-03T11:28:55.786Z,1.80
2022-12-03T11:31:47.464Z,1.80
2022-12-03T11:34:49.079Z,1.80
2022-12-03T11:37:27.956Z,1.80
2022-12-03T11:40:31.476Z,1.80
2022-12-03T11:43:02.936Z,1.80
2022-12-03T11:45:36.293Z,1.90
2022-12-03T11:48:14.595Z,1.90
2022-12-03T11:50:44.967Z,1.90
2022-12-03T11:53:17.336Z,2.00
2022-12-03T11:55:48.774Z,2.00
2022-12-03T11:58:20.984Z,2.10
2022-12-03T12:00:50.709Z,2.10
2022-12-03T12:03:28.338Z,2.10
2022-12-03T12:06:05.176Z,2.20
2022-12-03T12:08:40.491Z,2.20
2022-12-03T12:11:18.617Z,2.20
2022-12-03T12:13:51.254Z,2.20
2022-12-03T12:16:53.221Z,2.30
2022-12-03T12:19:52.647Z,2.20
2022-12-03T12:22:31.752Z,2.20
2022-12-03T12:25:01.764Z,2.30
2022-12-03T12:27:39.200Z,2.20
2022-12-03T12:30:09.389Z,2.20
2022-12-03T12:32:46.764Z,2.20
2022-12-03T12:35:18.356Z,2.20
2022-12-03T12:37:58.146Z,2.20
2022-12-03T12:40:30.723Z,2.30
2022-12-03T12:43:02.103Z,2.30
2022-12-03T12:45:36.524Z,2.30
2022-12-03T12:48:15.983Z,2.30
2022-12-03T12:50:47.328Z,2.30
2022-12-03T12:53:22.679Z,2.20
2022-12-03T12:55:58.128Z,2.30
2022-12-03T12:58:27.367Z,2.30
2022-12-03T13:00:57.050Z,2.30
2022-12-03T13:03:27.649Z,2.30
2022-12-03T13:05:58.661Z,2.30
2022-12-03T13:08:29.279Z,2.30
2022-12-03T13:11:00.879Z,2.30
2022-12-03T13:13:43.689Z,2.30
2022-12-03T13:16:19.181Z,2.30
2022-12-03T13:18:49.694Z,2.30
2022-12-03T13:21:25.083Z,2.30
2022-12-03T13:23:55.583Z,2.30
2022-12-03T13:26:38.239Z,2.30
2022-12-03T13:29:15.059Z,2.30
2022-12-03T13:31:49.886Z,2.30
2022-12-03T13:34:21.714Z,2.30
2022-12-03T13:39:47.253Z,2.30
2022-12-03T13:42:38.669Z,2.30
2022-12-03T13:45:33.457Z,2.30
2022-12-03T13:48:04.334Z,2.30
2022-12-03T13:50:37.169Z,2.30
2022-12-03T13:53:20.623Z,2.30
2022-12-03T13:55:51.306Z,2.30
2022-12-03T13:58:19.489Z,2.30
2022-12-03T14:00:48.080Z,2.30
2022-12-03T14:03:16.444Z,2.30
2022-12-03T14:05:44.523Z,2.40
2022-12-03T14:08:14.273Z,2.30
2022-12-03T14:10:42.414Z,2.30
2022-12-03T14:13:10.573Z,2.30
2022-12-03T14:15:38.641Z,2.30
2022-12-03T14:18:06.772Z,2.30
2022-12-03T14:20:36.447Z,2.20
2022-12-03T14:23:04.621Z,2.20
2022-12-03T14:25:34.024Z,2.20
2022-12-03T14:28:02.140Z,2.20
2022-12-03T14:30:31.343Z,2.20
2022-12-03T14:32:59.422Z,2.20
2022-12-03T14:35:27.493Z,2.20
2022-12-03T14:37:55.515Z,2.20
2022-12-03T14:40:23.624Z,2.20
2022-12-03T14:42:53.017Z,2.20
2022-12-03T14:45:22.995Z,2.20
2022-12-03T14:47:51.023Z,2.20
2022-12-03T14:50:19.063Z,2.20
2022-12-03T14:52:47.122Z,2.20
2022-12-03T14:55:15.382Z,2.20
2022-12-03T14:57:43.421Z,2.10
2022-12-03T15:00:14.207Z,2.10
2022-12-03T15:02:42.407Z,2.10
2022-12-03T15:05:10.925Z,2.10
2022-12-03T15:07:39.750Z,2.10
2022-12-03T15:10:08.961Z,2.10
2022-12-03T15:12:37.116Z,2.10
2022-12-03T15:15:05.712Z,2.10
2022-12-03T15:17:35.132Z,2.10
2022-12-03T15:20:03.208Z,2.10
2022-12-03T15:22:31.248Z,2.10
2022-12-03T15:24:59.315Z,2.00
2022-12-03T15:27:27.455Z,2.00
2022-12-03T15:29:55.781Z,2.00
2022-12-03T15:32:23.992Z,1.90
2022-12-03T15:34:53.383Z,2.00
2022-12-03T15:37:21.414Z,2.00
2022-12-03T15:39:49.641Z,1.90
2022-12-03T15:42:17.754Z,2.00
2022-12-03T15:44:47.189Z,2.00
2022-12-03T15:47:15.300Z,1.90
2022-12-03T15:49:43.430Z,1.90
2022-12-03T15:52:13.058Z,1.90
2022-12-03T15:54:41.140Z,1.90
2022-12-03T15:57:09.193Z,1.90
2022-12-03T15:59:37.286Z,1.90
2022-12-03T16:02:05.465Z,1.90
2022-12-03T16:04:33.681Z,1.90
2022-12-03T16:07:01.687Z,1.90
2022-12-03T16:09:31.087Z,1.90
2022-12-03T16:11:59.174Z,1.80
2022-12-03T16:14:27.651Z,1.80
2022-12-03T16:16:56.029Z,1.90
2022-12-03T16:19:24.031Z,1.80
2022-12-03T16:21:52.049Z,1.80
2022-12-03T16:24:20.091Z,1.80
2022-12-03T16:26:49.457Z,1.80
2022-12-03T16:29:17.485Z,1.80
2022-12-03T16:31:45.851Z,1.80
2022-12-03T16:34:14.350Z,1.80
2022-12-03T16:36:42.469Z,1.80
2022-12-03T16:39:11.736Z,1.80
2022-12-03T16:41:40.059Z,1.80
2022-12-03T16:44:09.792Z,1.80
2022-12-03T16:46:37.945Z,1.80
2022-12-03T16:49:07.878Z,1.80
2022-12-03T16:51:35.881Z,1.70
2022-12-03T16:54:03.864Z,1.70
2022-12-03T16:56:31.859Z,1.70
2022-12-03T16:58:59.872Z,1.70
2022-12-03T17:01:29.386Z,1.70
2022-12-03T17:03:57.522Z,1.70
2022-12-03T17:06:25.547Z,1.70
2022-12-03T17:08:53.638Z,1.70
2022-12-03T17:11:21.654Z,1.70
2022-12-03T17:13:49.709Z,1.70
2022-12-03T17:16:17.848Z,1.70
2022-12-03T17:18:47.311Z,1.70
2022-12-03T17:21:15.339Z,1.70
2022-12-03T17:23:44.689Z,1.70
2022-12-03T17:26:12.774Z,1.70
2022-12-03T17:28:40.781Z,1.70
2022-12-03T17:31:09.556Z,1.60
2022-12-03T17:33:37.970Z,1.60
2022-12-03T17:36:09.873Z,1.60
2022-12-03T17:38:39.436Z,1.60
2022-12-03T17:41:08.375Z,1.60
2022-12-03T17:43:36.335Z,1.60
2022-12-03T17:46:08.456Z,1.60
2022-12-03T17:48:37.004Z,1.60
2022-12-03T17:51:05.205Z,1.60
2022-12-03T17:53:34.603Z,1.60
2022-12-03T17:56:02.645Z,1.50
2022-12-03T17:58:30.643Z,1.60
2022-12-03T18:01:10.450Z,1.50
2022-12-03T18:03:38.724Z,1.50
2022-12-03T18:06:07.399Z,1.50
2022-12-03T18:08:36.915Z,1.50
2022-12-03T18:11:05.016Z,1.50
2022-12-03T18:13:33.142Z,1.50
2022-12-03T18:16:10.335Z,1.50
2022-12-03T18:18:38.423Z,1.40
2022-12-03T18:21:06.751Z,1.40
2022-12-03T18:23:36.515Z,1.40
2022-12-03T18:26:04.718Z,1.40
2022-12-03T18:28:32.797Z,1.40
2022-12-03T18:31:01.439Z,1.40
2022-12-03T18:33:29.938Z,1.40
2022-12-03T18:35:59.090Z,1.40
2022-12-03T18:38:30.174Z,1.40
2022-12-03T18:41:19.034Z,1.30
2022-12-03T18:43:47.158Z,1.60
2022-12-03T18:46:45.020Z,1.30
2022-12-03T18:49:04.497Z,1.30
2022-12-03T18:51:33.625Z,1.30
2022-12-03T18:54:02.104Z,1.30
2022-12-03T18:56:31.830Z,1.30
2022-12-03T18:58:59.992Z,1.30
2022-12-03T19:01:28.062Z,1.30
2022-12-03T19:03:56.125Z,1.30
2022-12-03T19:06:24.197Z,1.30
2022-12-03T19:08:54.139Z,1.30
2022-12-03T19:11:22.999Z,1.20
2022-12-03T19:13:52.458Z,1.20
2022-12-03T19:16:20.586Z,1.30
2022-12-03T19:18:48.668Z,1.20
2022-12-03T19:21:17.909Z,1.20
2022-12-03T19:24:16.089Z,1.20
2022-12-03T19:26:34.168Z,1.20
2022-12-03T19:29:03.643Z,1.20
2022-12-03T19:31:33.402Z,1.20
2022-12-03T19:34:01.488Z,1.20
2022-12-03T19:36:30.705Z,1.20
2022-12-03T19:39:01.238Z,1.20
2022-12-03T19:41:30.921Z,1.20
2022-12-03T19:43:59.330Z,1.20
2022-12-03T19:46:30.287Z,1.20
2022-12-03T19:48:58.806Z,1.20
2022-12-03T19:51:34.826Z,1.20
2022-12-03T19:54:03.759Z,1.20
2022-12-03T19:56:32.198Z,1.20
2022-12-03T19:59:00.544Z,1.20
2022-12-03T20:01:32.386Z,1.20
2022-12-03T20:04:02.129Z,1.20
2022-12-03T20:06:32.184Z,1.20
2022-12-03T20:09:01.886Z,1.20
2022-12-03T20:11:32.607Z,1.20
2022-12-03T20:14:03.450Z,1.20
2022-12-03T20:16:33.665Z,1.20
2022-12-03T20:19:03.661Z,1.20
2022-12-03T20:21:33.339Z,1.10
2022-12-03T20:24:01.724Z,1.20
2022-12-03T20:26:29.979Z,1.20
2022-12-03T20:28:59.183Z,1.20
2022-12-03T20:31:29.200Z,1.10
2022-12-03T20:34:00.486Z,1.10
2022-12-03T20:36:29.620Z,1.20
2022-12-03T20:38:59.230Z,1.20
2022-12-03T20:41:27.307Z,1.20
2022-12-03T20:43:55.573Z,1.20
2022-12-03T20:46:25.785Z,1.20
2022-12-03T20:48:55.056Z,1.20
2022-12-03T20:51:27.715Z,1.10
2022-12-03T20:53:55.930Z,1.10
2022-12-03T20:56:26.835Z,1.10
2022-12-03T20:58:55.133Z,1.20
2022-12-03T21:01:24.988Z,1.20
2022-12-03T21:03:55.068Z,1.20
2022-12-03T21:06:25.950Z,1.10
2022-12-03T21:08:54.680Z,1.10
2022-12-03T21:11:25.266Z,1.10
2022-12-03T21:13:54.708Z,1.10
2022-12-03T21:16:52.153Z,1.10
2022-12-03T21:19:13.689Z,1.10
2022-12-03T21:21:43.412Z,1.10
2022-12-03T21:24:13.424Z,1.10
2022-12-03T21:26:42.291Z,1.00
2022-12-03T21:29:10.367Z,1.00
2022-12-03T21:31:39.817Z,1.00
2022-12-03T21:34:08.724Z,1.00
2022-12-03T21:36:37.819Z,1.00
2022-12-03T21:39:10.010Z,1.00
2022-12-03T21:41:38.529Z,1.00
2022-12-03T21:44:06.744Z,1.00
2022-12-03T21:47:09.358Z,1.00
2022-12-03T21:49:23.641Z,0.90
2022-12-03T21:51:51.787Z,0.90
2022-12-03T21:54:21.257Z,0.90
2022-12-03T21:56:49.288Z,0.90
2022-12-03T21:59:17.461Z,0.90
2022-12-03T22:01:47.402Z,0.90
2022-12-03T22:04:15.642Z,0.90
2022-12-03T22:06:48.811Z,0.90
2022-12-03T22:09:21.817Z,0.80
2022-12-03T22:12:00.953Z,0.80
2022-12-03T22:14:31.139Z,0.80
2022-12-03T22:17:00.614Z,0.80
2022-12-03T22:19:31.877Z,0.80
2022-12-03T22:22:02.541Z,0.80
2022-12-03T22:24:30.767Z,0.80
2022-12-03T22:27:00.255Z,0.70
2022-12-03T22:29:28.350Z,0.70
2022-12-03T22:31:56.333Z,0.70
2022-12-03T22:34:24.556Z,0.70
2022-12-03T22:36:52.754Z,0.80
2022-12-03T22:39:20.819Z,0.70
2022-12-03T22:41:49.136Z,0.70
2022-12-03T22:44:18.552Z,0.70
2022-12-03T22:46:46.691Z,0.60
2022-12-03T22:49:14.966Z,0.60
2022-12-03T22:51:46.142Z,0.60
2022-12-03T22:54:18.167Z,0.60
2022-12-03T22:56:48.871Z,0.60
2022-12-03T22:59:18.422Z,0.60
2022-12-03T23:01:47.776Z,0.60
2022-12-03T23:04:16.016Z,0.60
2022-12-03T23:06:46.659Z,0.60
2022-12-03T23:09:14.961Z,0.60
2022-12-03T23:11:44.999Z,0.60
2022-12-03T23:14:13.276Z,0.50
2022-12-03T23:16:42.642Z,0.50
2022-12-03T23:19:10.717Z,0.50
2022-12-03T23:21:38.720Z,0.50
2022-12-03T23:24:07.784Z,0.50
2022-12-03T23:26:38.247Z,0.50
2022-12-03T23:29:08.354Z,0.50
2022-12-03T23:31:36.579Z,0.50
2022-12-03T23:34:06.214Z,0.50
2022-12-03T23:36:34.813Z,0.50
2022-12-03T23:39:02.885Z,0.50
2022-12-03T23:41:31.034Z,0.50
2022-12-03T23:43:59.046Z,0.50
2022-12-03T23:46:28.252Z,0.50
2022-12-03T23:48:58.413Z,0.40
2022-12-03T23:51:28.105Z,0.40
2022-12-03T23:53:56.688Z,0.40
2022-12-03T23:56:26.682Z,0.40
2022-12-03T23:58:54.778Z,0.40
